sensor_id;sensor_type;location;lat;lon;timestamp;P1;durP1;ratioP1;P2;durP2;ratioP2
17372;SDS011;8803;48.116;11.590;2024-02-21T00:00:20;5.67;;;2.00;;
17372;SDS011;8803;48.116;11.590;2024-02-21T00:02:34;3.73;;;2.20;;
17372;SDS011;8803;48.116;11.590;2024-02-21T00:04:39;3.70;;;1.90;;
17372;SDS011;8803;48.116;11.590;2024-02-21T00:06:45;2.80;;;1.63;;
17372;SDS011;8803;48.116;11.590;2024-02-21T00:08:59;2.43;;;1.70;;
17372;SDS011;8803;48.116;11.590;2024-02-21T00:11:04;4.10;;;2.00;;
17372;SDS011;8803;48.116;11.590;2024-02-21T00:13:18;3.80;;;1.57;;
17372;SDS011;8803;48.116;11.590;2024-02-21T00:15:23;3.47;;;1.90;;
17372;SDS011;8803;48.116;11.590;2024-02-21T00:17:28;3.10;;;1.80;;
17372;SDS011;8803;48.116;11.590;2024-02-21T00:19:32;3.40;;;1.90;;
17372;SDS011;8803;48.116;11.590;2024-02-21T00:21:46;3.33;;;1.80;;
17372;SDS011;8803;48.116;11.590;2024-02-21T00:23:52;4.67;;;2.10;;
17372;SDS011;8803;48.116;11.590;2024-02-21T00:26:05;3.40;;;1.73;;
17372;SDS011;8803;48.116;11.590;2024-02-21T00:28:09;4.03;;;1.80;;
17372;SDS011;8803;48.116;11.590;2024-02-21T00:30:14;3.97;;;1.97;;
17372;SDS011;8803;48.116;11.590;2024-02-21T00:32:28;3.30;;;1.80;;
17372;SDS011;8803;48.116;11.590;2024-02-21T00:34:33;3.30;;;1.63;;
17372;SDS011;8803;48.116;11.590;2024-02-21T00:36:38;3.97;;;1.97;;
17372;SDS011;8803;48.116;11.590;2024-02-21T00:38:43;2.83;;;1.90;;
17372;SDS011;8803;48.116;11.590;2024-02-21T00:40:48;4.20;;;1.97;;
17372;SDS011;8803;48.116;11.590;2024-02-21T00:42:52;4.20;;;2.07;;
17372;SDS011;8803;48.116;11.590;2024-02-21T00:44:58;3.90;;;2.03;;
17372;SDS011;8803;48.116;11.590;2024-02-21T00:47:02;3.57;;;2.20;;
17372;SDS011;8803;48.116;11.590;2024-02-21T00:49:08;3.40;;;1.90;;
17372;SDS011;8803;48.116;11.590;2024-02-21T00:51:13;3.80;;;2.00;;
17372;SDS011;8803;48.116;11.590;2024-02-21T00:53:26;4.30;;;1.87;;
17372;SDS011;8803;48.116;11.590;2024-02-21T00:55:31;3.33;;;1.83;;
17372;SDS011;8803;48.116;11.590;2024-02-21T00:57:35;3.13;;;1.70;;
17372;SDS011;8803;48.116;11.590;2024-02-21T00:59:40;3.83;;;1.80;;
17372;SDS011;8803;48.116;11.590;2024-02-21T01:01:45;3.13;;;1.93;;
17372;SDS011;8803;48.116;11.590;2024-02-21T01:03:50;3.37;;;1.80;;
17372;SDS011;8803;48.116;11.590;2024-02-21T01:05:56;2.43;;;1.57;;
17372;SDS011;8803;48.116;11.590;2024-02-21T01:08:01;2.93;;;1.73;;
17372;SDS011;8803;48.116;11.590;2024-02-21T01:10:10;2.33;;;1.60;;
17372;SDS011;8803;48.116;11.590;2024-02-21T01:12:14;3.47;;;1.80;;
17372;SDS011;8803;48.116;11.590;2024-02-21T01:14:19;2.23;;;1.33;;
17372;SDS011;8803;48.116;11.590;2024-02-21T01:16:32;2.37;;;1.90;;
17372;SDS011;8803;48.116;11.590;2024-02-21T01:18:37;2.43;;;1.90;;
17372;SDS011;8803;48.116;11.590;2024-02-21T01:20:44;3.50;;;1.80;;
17372;SDS011;8803;48.116;11.590;2024-02-21T01:22:57;2.53;;;1.70;;
17372;SDS011;8803;48.116;11.590;2024-02-21T01:25:03;2.93;;;1.80;;
17372;SDS011;8803;48.116;11.590;2024-02-21T01:27:10;2.03;;;1.83;;
17372;SDS011;8803;48.116;11.590;2024-02-21T01:29:23;2.53;;;1.67;;
17372;SDS011;8803;48.116;11.590;2024-02-21T01:31:29;2.57;;;1.43;;
17372;SDS011;8803;48.116;11.590;2024-02-21T01:33:43;4.60;;;1.70;;
17372;SDS011;8803;48.116;11.590;2024-02-21T01:35:47;3.13;;;1.67;;
17372;SDS011;8803;48.116;11.590;2024-02-21T01:37:52;2.03;;;1.40;;
17372;SDS011;8803;48.116;11.590;2024-02-21T01:40:12;2.57;;;1.60;;
17372;SDS011;8803;48.116;11.590;2024-02-21T01:42:17;2.10;;;1.57;;
17372;SDS011;8803;48.116;11.590;2024-02-21T01:44:22;3.47;;;1.83;;
17372;SDS011;8803;48.116;11.590;2024-02-21T01:46:27;3.60;;;1.80;;
17372;SDS011;8803;48.116;11.590;2024-02-21T01:48:33;2.87;;;1.40;;
17372;SDS011;8803;48.116;11.590;2024-02-21T01:50:38;1.83;;;1.30;;
17372;SDS011;8803;48.116;11.590;2024-02-21T01:52:44;1.83;;;1.33;;
17372;SDS011;8803;48.116;11.590;2024-02-21T01:54:51;3.67;;;1.90;;
17372;SDS011;8803;48.116;11.590;2024-02-21T01:56:57;1.70;;;1.43;;
17372;SDS011;8803;48.116;11.590;2024-02-21T01:59:03;1.63;;;1.30;;
17372;SDS011;8803;48.116;11.590;2024-02-21T02:01:08;2.60;;;1.60;;
17372;SDS011;8803;48.116;11.590;2024-02-21T02:03:15;1.90;;;1.50;;
17372;SDS011;8803;48.116;11.590;2024-02-21T02:05:20;1.80;;;1.50;;
17372;SDS011;8803;48.116;11.590;2024-02-21T02:07:26;2.07;;;1.50;;
17372;SDS011;8803;48.116;11.590;2024-02-21T02:09:31;3.83;;;1.73;;
17372;SDS011;8803;48.116;11.590;2024-02-21T02:11:37;2.30;;;1.60;;
17372;SDS011;8803;48.116;11.590;2024-02-21T02:13:43;3.70;;;1.27;;
17372;SDS011;8803;48.116;11.590;2024-02-21T02:15:50;2.20;;;1.50;;
17372;SDS011;8803;48.116;11.590;2024-02-21T02:17:58;2.40;;;1.33;;
17372;SDS011;8803;48.116;11.590;2024-02-21T02:20:16;1.30;;;1.20;;
17372;SDS011;8803;48.116;11.590;2024-02-21T02:22:22;2.00;;;1.40;;
17372;SDS011;8803;48.116;11.590;2024-02-21T02:24:30;4.73;;;1.30;;
17372;SDS011;8803;48.116;11.590;2024-02-21T02:26:35;2.23;;;1.20;;
17372;SDS011;8803;48.116;11.590;2024-02-21T02:28:40;2.70;;;1.53;;
17372;SDS011;8803;48.116;11.590;2024-02-21T02:30:45;3.00;;;1.63;;
17372;SDS011;8803;48.116;11.590;2024-02-21T02:32:58;2.90;;;1.60;;
17372;SDS011;8803;48.116;11.590;2024-02-21T02:35:04;2.40;;;1.70;;
17372;SDS011;8803;48.116;11.590;2024-02-21T02:37:09;1.40;;;1.30;;
17372;SDS011;8803;48.116;11.590;2024-02-21T02:39:23;2.60;;;1.23;;
17372;SDS011;8803;48.116;11.590;2024-02-21T02:41:27;2.37;;;1.23;;
17372;SDS011;8803;48.116;11.590;2024-02-21T02:43:41;1.37;;;1.10;;
17372;SDS011;8803;48.116;11.590;2024-02-21T02:45:47;3.00;;;1.10;;
17372;SDS011;8803;48.116;11.590;2024-02-21T02:47:52;1.53;;;1.20;;
17372;SDS011;8803;48.116;11.590;2024-02-21T02:50:06;1.60;;;1.30;;
17372;SDS011;8803;48.116;11.590;2024-02-21T02:52:12;2.33;;;1.40;;
17372;SDS011;8803;48.116;11.590;2024-02-21T02:54:17;2.10;;;1.10;;
17372;SDS011;8803;48.116;11.590;2024-02-21T02:56:21;3.47;;;1.50;;
17372;SDS011;8803;48.116;11.590;2024-02-21T02:58:26;2.60;;;1.33;;
17372;SDS011;8803;48.116;11.590;2024-02-21T03:00:30;2.07;;;1.10;;
17372;SDS011;8803;48.116;11.590;2024-02-21T03:02:37;3.50;;;1.60;;
17372;SDS011;8803;48.116;11.590;2024-02-21T03:04:42;2.23;;;1.20;;
17372;SDS011;8803;48.116;11.590;2024-02-21T03:06:47;1.40;;;1.13;;
17372;SDS011;8803;48.116;11.590;2024-02-21T03:08:52;2.57;;;1.47;;
17372;SDS011;8803;48.116;11.590;2024-02-21T03:11:03;2.70;;;1.20;;
17372;SDS011;8803;48.116;11.590;2024-02-21T03:13:08;2.27;;;1.33;;
17372;SDS011;8803;48.116;11.590;2024-02-21T03:15:13;1.27;;;1.07;;
17372;SDS011;8803;48.116;11.590;2024-02-21T03:17:18;3.23;;;1.43;;
17372;SDS011;8803;48.116;11.590;2024-02-21T03:19:23;2.87;;;1.00;;
17372;SDS011;8803;48.116;11.590;2024-02-21T03:21:29;1.50;;;1.20;;
17372;SDS011;8803;48.116;11.590;2024-02-21T03:23:34;1.83;;;0.97;;
17372;SDS011;8803;48.116;11.590;2024-02-21T03:25:39;2.17;;;1.30;;
17372;SDS011;8803;48.116;11.590;2024-02-21T03:27:43;1.67;;;1.03;;
17372;SDS011;8803;48.116;11.590;2024-02-21T03:29:49;1.40;;;0.97;;
17372;SDS011;8803;48.116;11.590;2024-02-21T03:31:54;1.50;;;1.10;;
17372;SDS011;8803;48.116;11.590;2024-02-21T03:34:08;2.23;;;1.20;;
17372;SDS011;8803;48.116;11.590;2024-02-21T03:36:16;1.53;;;1.10;;
17372;SDS011;8803;48.116;11.590;2024-02-21T03:38:21;2.47;;;1.17;;
17372;SDS011;8803;48.116;11.590;2024-02-21T03:40:25;1.30;;;0.90;;
17372;SDS011;8803;48.116;11.590;2024-02-21T03:42:30;2.67;;;1.50;;
17372;SDS011;8803;48.116;11.590;2024-02-21T03:44:36;1.10;;;1.00;;
17372;SDS011;8803;48.116;11.590;2024-02-21T03:46:41;1.40;;;1.10;;
17372;SDS011;8803;48.116;11.590;2024-02-21T03:48:46;1.10;;;0.90;;
17372;SDS011;8803;48.116;11.590;2024-02-21T03:50:51;1.27;;;1.10;;
17372;SDS011;8803;48.116;11.590;2024-02-21T03:52:56;2.20;;;1.10;;
17372;SDS011;8803;48.116;11.590;2024-02-21T03:55:02;1.63;;;1.10;;
17372;SDS011;8803;48.116;11.590;2024-02-21T03:57:10;1.37;;;1.00;;
17372;SDS011;8803;48.116;11.590;2024-02-21T03:59:14;1.37;;;1.07;;
17372;SDS011;8803;48.116;11.590;2024-02-21T04:01:20;1.27;;;1.17;;
17372;SDS011;8803;48.116;11.590;2024-02-21T04:03:25;1.67;;;0.87;;
17372;SDS011;8803;48.116;11.590;2024-02-21T04:05:38;1.53;;;1.30;;
17372;SDS011;8803;48.116;11.590;2024-02-21T04:07:42;2.23;;;1.10;;
17372;SDS011;8803;48.116;11.590;2024-02-21T04:09:59;1.40;;;1.20;;
17372;SDS011;8803;48.116;11.590;2024-02-21T04:14:17;2.03;;;1.00;;
17372;SDS011;8803;48.116;11.590;2024-02-21T04:16:21;1.43;;;1.00;;
17372;SDS011;8803;48.116;11.590;2024-02-21T04:18:26;1.37;;;1.00;;
17372;SDS011;8803;48.116;11.590;2024-02-21T04:20:39;1.23;;;0.97;;
17372;SDS011;8803;48.116;11.590;2024-02-21T04:22:45;1.37;;;1.00;;
17372;SDS011;8803;48.116;11.590;2024-02-21T04:24:50;1.87;;;1.20;;
17372;SDS011;8803;48.116;11.590;2024-02-21T04:27:04;1.83;;;1.10;;
17372;SDS011;8803;48.116;11.590;2024-02-21T04:29:09;1.97;;;1.10;;
17372;SDS011;8803;48.116;11.590;2024-02-21T04:31:14;1.17;;;0.93;;
17372;SDS011;8803;48.116;11.590;2024-02-21T04:33:27;0.93;;;0.77;;
17372;SDS011;8803;48.116;11.590;2024-02-21T04:37:43;1.70;;;0.93;;
17372;SDS011;8803;48.116;11.590;2024-02-21T04:41:59;1.30;;;1.00;;
17372;SDS011;8803;48.116;11.590;2024-02-21T04:44:05;2.20;;;1.30;;
17372;SDS011;8803;48.116;11.590;2024-02-21T04:46:10;1.70;;;1.00;;
17372;SDS011;8803;48.116;11.590;2024-02-21T04:48:15;1.93;;;1.30;;
17372;SDS011;8803;48.116;11.590;2024-02-21T04:50:20;1.50;;;0.97;;
17372;SDS011;8803;48.116;11.590;2024-02-21T04:52:24;1.63;;;1.07;;
17372;SDS011;8803;48.116;11.590;2024-02-21T04:56:40;1.37;;;1.07;;
17372;SDS011;8803;48.116;11.590;2024-02-21T04:58:45;1.10;;;1.00;;
17372;SDS011;8803;48.116;11.590;2024-02-21T05:00:50;2.70;;;1.40;;
17372;SDS011;8803;48.116;11.590;2024-02-21T05:02:56;1.20;;;1.10;;
17372;SDS011;8803;48.116;11.590;2024-02-21T05:05:01;1.57;;;0.90;;
17372;SDS011;8803;48.116;11.590;2024-02-21T05:07:07;1.40;;;0.97;;
17372;SDS011;8803;48.116;11.590;2024-02-21T05:09:13;1.00;;;0.90;;
17372;SDS011;8803;48.116;11.590;2024-02-21T05:11:18;3.00;;;1.00;;
17372;SDS011;8803;48.116;11.590;2024-02-21T05:13:23;1.20;;;0.80;;
17372;SDS011;8803;48.116;11.590;2024-02-21T05:15:28;1.97;;;0.87;;
17372;SDS011;8803;48.116;11.590;2024-02-21T05:17:33;1.80;;;0.97;;
17372;SDS011;8803;48.116;11.590;2024-02-21T05:19:37;1.10;;;0.93;;
17372;SDS011;8803;48.116;11.590;2024-02-21T05:21:42;1.97;;;1.30;;
17372;SDS011;8803;48.116;11.590;2024-02-21T05:23:47;2.07;;;1.40;;
17372;SDS011;8803;48.116;11.590;2024-02-21T05:25:52;1.57;;;1.10;;
17372;SDS011;8803;48.116;11.590;2024-02-21T05:27:56;1.37;;;0.90;;
17372;SDS011;8803;48.116;11.590;2024-02-21T05:30:05;1.07;;;0.97;;
17372;SDS011;8803;48.116;11.590;2024-02-21T05:32:11;1.07;;;0.90;;
17372;SDS011;8803;48.116;11.590;2024-02-21T05:34:17;1.17;;;1.00;;
17372;SDS011;8803;48.116;11.590;2024-02-21T05:36:22;1.83;;;0.90;;
17372;SDS011;8803;48.116;11.590;2024-02-21T05:38:26;1.07;;;0.90;;
17372;SDS011;8803;48.116;11.590;2024-02-21T05:40:31;1.50;;;0.90;;
17372;SDS011;8803;48.116;11.590;2024-02-21T05:42:36;1.53;;;1.07;;
17372;SDS011;8803;48.116;11.590;2024-02-21T05:44:40;3.00;;;0.93;;
17372;SDS011;8803;48.116;11.590;2024-02-21T05:46:45;2.07;;;0.90;;
17372;SDS011;8803;48.116;11.590;2024-02-21T05:48:50;2.30;;;1.30;;
17372;SDS011;8803;48.116;11.590;2024-02-21T05:50:55;1.00;;;0.90;;
17372;SDS011;8803;48.116;11.590;2024-02-21T05:53:00;1.33;;;0.83;;
17372;SDS011;8803;48.116;11.590;2024-02-21T05:55:06;1.57;;;1.03;;
17372;SDS011;8803;48.116;11.590;2024-02-21T05:57:11;1.10;;;1.00;;
17372;SDS011;8803;48.116;11.590;2024-02-21T05:59:16;1.00;;;0.83;;
17372;SDS011;8803;48.116;11.590;2024-02-21T06:01:21;1.67;;;0.80;;
17372;SDS011;8803;48.116;11.590;2024-02-21T06:03:25;1.27;;;0.80;;
17372;SDS011;8803;48.116;11.590;2024-02-21T06:05:31;1.67;;;1.10;;
17372;SDS011;8803;48.116;11.590;2024-02-21T06:07:37;0.77;;;0.77;;
17372;SDS011;8803;48.116;11.590;2024-02-21T06:09:51;1.47;;;1.00;;
17372;SDS011;8803;48.116;11.590;2024-02-21T06:11:56;1.27;;;1.10;;
17372;SDS011;8803;48.116;11.590;2024-02-21T06:14:00;1.23;;;0.80;;
17372;SDS011;8803;48.116;11.590;2024-02-21T06:16:13;2.10;;;1.00;;
17372;SDS011;8803;48.116;11.590;2024-02-21T06:18:18;2.40;;;1.17;;
17372;SDS011;8803;48.116;11.590;2024-02-21T06:20:23;1.73;;;1.07;;
17372;SDS011;8803;48.116;11.590;2024-02-21T06:22:28;1.33;;;1.00;;
17372;SDS011;8803;48.116;11.590;2024-02-21T06:24:33;2.33;;;1.07;;
17372;SDS011;8803;48.116;11.590;2024-02-21T06:26:38;1.40;;;1.00;;
17372;SDS011;8803;48.116;11.590;2024-02-21T06:28:44;1.43;;;0.90;;
17372;SDS011;8803;48.116;11.590;2024-02-21T06:30:57;2.40;;;1.30;;
17372;SDS011;8803;48.116;11.590;2024-02-21T06:33:02;2.20;;;0.97;;
17372;SDS011;8803;48.116;11.590;2024-02-21T06:35:09;1.00;;;0.80;;
17372;SDS011;8803;48.116;11.590;2024-02-21T06:37:25;1.80;;;1.33;;
17372;SDS011;8803;48.116;11.590;2024-02-21T06:39:31;2.50;;;0.90;;
17372;SDS011;8803;48.116;11.590;2024-02-21T06:41:44;1.20;;;0.90;;
17372;SDS011;8803;48.116;11.590;2024-02-21T06:43:50;1.10;;;0.80;;
17372;SDS011;8803;48.116;11.590;2024-02-21T06:45:55;2.67;;;1.10;;
17372;SDS011;8803;48.116;11.590;2024-02-21T06:48:08;1.10;;;1.00;;
17372;SDS011;8803;48.116;11.590;2024-02-21T06:50:13;1.87;;;1.00;;
17372;SDS011;8803;48.116;11.590;2024-02-21T06:52:18;2.27;;;1.00;;
17372;SDS011;8803;48.116;11.590;2024-02-21T06:54:24;1.33;;;1.00;;
17372;SDS011;8803;48.116;11.590;2024-02-21T06:56:28;1.63;;;0.90;;
17372;SDS011;8803;48.116;11.590;2024-02-21T06:58:33;4.00;;;1.20;;
17372;SDS011;8803;48.116;11.590;2024-02-21T07:00:39;1.97;;;0.93;;
17372;SDS011;8803;48.116;11.590;2024-02-21T07:02:45;2.83;;;0.90;;
17372;SDS011;8803;48.116;11.590;2024-02-21T07:04:50;1.67;;;1.00;;
17372;SDS011;8803;48.116;11.590;2024-02-21T07:09:06;1.73;;;1.40;;
17372;SDS011;8803;48.116;11.590;2024-02-21T07:11:11;2.93;;;1.17;;
17372;SDS011;8803;48.116;11.590;2024-02-21T07:13:16;0.97;;;0.67;;
17372;SDS011;8803;48.116;11.590;2024-02-21T07:15:29;0.90;;;0.63;;
17372;SDS011;8803;48.116;11.590;2024-02-21T07:17:34;1.67;;;0.90;;
17372;SDS011;8803;48.116;11.590;2024-02-21T07:19:39;2.20;;;0.77;;
17372;SDS011;8803;48.116;11.590;2024-02-21T07:21:43;1.13;;;0.70;;
17372;SDS011;8803;48.116;11.590;2024-02-21T07:23:49;1.13;;;0.90;;
17372;SDS011;8803;48.116;11.590;2024-02-21T07:26:03;2.40;;;0.87;;
17372;SDS011;8803;48.116;11.590;2024-02-21T07:28:08;3.03;;;0.70;;
17372;SDS011;8803;48.116;11.590;2024-02-21T07:30:21;1.07;;;0.70;;
17372;SDS011;8803;48.116;11.590;2024-02-21T07:32:26;0.93;;;0.80;;
17372;SDS011;8803;48.116;11.590;2024-02-21T07:34:39;2.83;;;1.10;;
17372;SDS011;8803;48.116;11.590;2024-02-21T07:36:45;2.70;;;1.10;;
17372;SDS011;8803;48.116;11.590;2024-02-21T07:38:58;2.33;;;0.80;;
17372;SDS011;8803;48.116;11.590;2024-02-21T07:41:03;1.10;;;0.80;;
17372;SDS011;8803;48.116;11.590;2024-02-21T07:43:16;1.13;;;0.70;;
17372;SDS011;8803;48.116;11.590;2024-02-21T07:45:23;1.23;;;0.63;;
17372;SDS011;8803;48.116;11.590;2024-02-21T07:47:36;1.53;;;1.00;;
17372;SDS011;8803;48.116;11.590;2024-02-21T07:49:42;4.20;;;2.57;;
17372;SDS011;8803;48.116;11.590;2024-02-21T07:51:56;2.07;;;1.33;;
17372;SDS011;8803;48.116;11.590;2024-02-21T07:54:02;0.87;;;0.80;;
17372;SDS011;8803;48.116;11.590;2024-02-21T07:56:15;2.03;;;1.13;;
17372;SDS011;8803;48.116;11.590;2024-02-21T07:58:20;3.20;;;1.03;;
17372;SDS011;8803;48.116;11.590;2024-02-21T08:00:33;1.23;;;0.87;;
17372;SDS011;8803;48.116;11.590;2024-02-21T08:02:38;1.10;;;0.67;;
17372;SDS011;8803;48.116;11.590;2024-02-21T08:04:51;1.70;;;0.80;;
17372;SDS011;8803;48.116;11.590;2024-02-21T08:06:56;1.47;;;0.80;;
17372;SDS011;8803;48.116;11.590;2024-02-21T08:09:09;1.93;;;0.87;;
17372;SDS011;8803;48.116;11.590;2024-02-21T08:11:14;1.30;;;1.00;;
17372;SDS011;8803;48.116;11.590;2024-02-21T08:13:27;1.17;;;0.70;;
17372;SDS011;8803;48.116;11.590;2024-02-21T08:15:31;0.80;;;0.70;;
17372;SDS011;8803;48.116;11.590;2024-02-21T08:17:44;1.17;;;0.90;;
17372;SDS011;8803;48.116;11.590;2024-02-21T08:19:49;3.00;;;1.10;;
17372;SDS011;8803;48.116;11.590;2024-02-21T08:22:02;1.87;;;1.20;;
17372;SDS011;8803;48.116;11.590;2024-02-21T08:24:08;1.20;;;1.00;;
17372;SDS011;8803;48.116;11.590;2024-02-21T08:26:21;2.00;;;0.80;;
17372;SDS011;8803;48.116;11.590;2024-02-21T08:28:27;1.07;;;0.77;;
17372;SDS011;8803;48.116;11.590;2024-02-21T08:30:40;1.73;;;1.27;;
17372;SDS011;8803;48.116;11.590;2024-02-21T08:32:48;7.93;;;4.37;;
17372;SDS011;8803;48.116;11.590;2024-02-21T08:35:01;3.23;;;1.93;;
17372;SDS011;8803;48.116;11.590;2024-02-21T08:37:07;3.00;;;2.03;;
17372;SDS011;8803;48.116;11.590;2024-02-21T08:39:20;1.50;;;1.30;;
17372;SDS011;8803;48.116;11.590;2024-02-21T08:41:26;1.93;;;0.97;;
17372;SDS011;8803;48.116;11.590;2024-02-21T08:43:39;1.57;;;1.03;;
17372;SDS011;8803;48.116;11.590;2024-02-21T08:45:44;1.43;;;0.80;;
17372;SDS011;8803;48.116;11.590;2024-02-21T08:47:57;0.97;;;0.77;;
17372;SDS011;8803;48.116;11.590;2024-02-21T08:50:02;2.73;;;0.73;;
17372;SDS011;8803;48.116;11.590;2024-02-21T08:52:16;1.10;;;0.90;;
17372;SDS011;8803;48.116;11.590;2024-02-21T08:54:21;2.03;;;1.07;;
17372;SDS011;8803;48.116;11.590;2024-02-21T08:56:34;1.60;;;1.03;;
17372;SDS011;8803;48.116;11.590;2024-02-21T08:58:39;1.03;;;0.93;;
17372;SDS011;8803;48.116;11.590;2024-02-21T09:00:53;1.10;;;0.90;;
17372;SDS011;8803;48.116;11.590;2024-02-21T09:02:58;2.60;;;1.00;;
17372;SDS011;8803;48.116;11.590;2024-02-21T09:05:11;1.50;;;0.93;;
17372;SDS011;8803;48.116;11.590;2024-02-21T09:07:16;2.60;;;1.93;;
17372;SDS011;8803;48.116;11.590;2024-02-21T09:09:29;1.60;;;1.10;;
17372;SDS011;8803;48.116;11.590;2024-02-21T09:11:34;4.57;;;1.70;;
17372;SDS011;8803;48.116;11.590;2024-02-21T09:13:47;2.63;;;2.40;;
17372;SDS011;8803;48.116;11.590;2024-02-21T09:15:52;3.10;;;2.10;;
17372;SDS011;8803;48.116;11.590;2024-02-21T09:18:05;2.20;;;1.50;;
17372;SDS011;8803;48.116;11.590;2024-02-21T09:20:11;1.67;;;1.00;;
17372;SDS011;8803;48.116;11.590;2024-02-21T09:22:24;0.80;;;0.80;;
17372;SDS011;8803;48.116;11.590;2024-02-21T09:24:29;1.00;;;0.80;;
17372;SDS011;8803;48.116;11.590;2024-02-21T09:26:42;0.87;;;0.70;;
17372;SDS011;8803;48.116;11.590;2024-02-21T09:28:47;1.13;;;0.90;;
17372;SDS011;8803;48.116;11.590;2024-02-21T09:31:02;1.20;;;0.77;;
17372;SDS011;8803;48.116;11.590;2024-02-21T09:33:07;3.13;;;2.00;;
17372;SDS011;8803;48.116;11.590;2024-02-21T09:35:20;4.33;;;3.20;;
17372;SDS011;8803;48.116;11.590;2024-02-21T09:37:27;2.10;;;1.27;;
17372;SDS011;8803;48.116;11.590;2024-02-21T09:39:42;1.80;;;1.23;;
17372;SDS011;8803;48.116;11.590;2024-02-21T09:41:50;1.30;;;1.00;;
17372;SDS011;8803;48.116;11.590;2024-02-21T09:44:03;0.77;;;0.70;;
17372;SDS011;8803;48.116;11.590;2024-02-21T09:46:08;1.17;;;0.80;;
17372;SDS011;8803;48.116;11.590;2024-02-21T09:50:39;0.87;;;0.73;;
17372;SDS011;8803;48.116;11.590;2024-02-21T09:52:46;1.87;;;1.03;;
17372;SDS011;8803;48.116;11.590;2024-02-21T09:55:04;0.83;;;0.67;;
17372;SDS011;8803;48.116;11.590;2024-02-21T09:57:14;2.33;;;1.03;;
17372;SDS011;8803;48.116;11.590;2024-02-21T09:59:28;1.97;;;1.20;;
17372;SDS011;8803;48.116;11.590;2024-02-21T10:01:35;1.67;;;1.23;;
17372;SDS011;8803;48.116;11.590;2024-02-21T10:03:48;1.27;;;1.13;;
17372;SDS011;8803;48.116;11.590;2024-02-21T10:05:54;1.80;;;1.20;;
17372;SDS011;8803;48.116;11.590;2024-02-21T10:08:07;1.87;;;1.20;;
17372;SDS011;8803;48.116;11.590;2024-02-21T10:10:15;1.63;;;0.90;;
17372;SDS011;8803;48.116;11.590;2024-02-21T10:12:28;1.70;;;1.00;;
17372;SDS011;8803;48.116;11.590;2024-02-21T10:14:33;1.20;;;0.87;;
17372;SDS011;8803;48.116;11.590;2024-02-21T10:16:46;1.27;;;0.90;;
17372;SDS011;8803;48.116;11.590;2024-02-21T10:21:10;0.90;;;0.80;;
17372;SDS011;8803;48.116;11.590;2024-02-21T10:23:15;1.60;;;0.80;;
17372;SDS011;8803;48.116;11.590;2024-02-21T10:25:28;1.30;;;0.73;;
17372;SDS011;8803;48.116;11.590;2024-02-21T10:27:33;3.60;;;1.30;;
17372;SDS011;8803;48.116;11.590;2024-02-21T10:29:49;3.23;;;2.50;;
17372;SDS011;8803;48.116;11.590;2024-02-21T10:32:05;3.10;;;2.37;;
17372;SDS011;8803;48.116;11.590;2024-02-21T10:34:16;2.93;;;1.87;;
17372;SDS011;8803;48.116;11.590;2024-02-21T10:36:29;1.93;;;1.30;;
17372;SDS011;8803;48.116;11.590;2024-02-21T10:38:36;1.93;;;1.00;;
17372;SDS011;8803;48.116;11.590;2024-02-21T10:40:49;0.53;;;0.53;;
17372;SDS011;8803;48.116;11.590;2024-02-21T10:42:57;2.17;;;0.73;;
17372;SDS011;8803;48.116;11.590;2024-02-21T10:45:11;0.93;;;0.60;;
17372;SDS011;8803;48.116;11.590;2024-02-21T10:47:20;0.60;;;0.60;;
17372;SDS011;8803;48.116;11.590;2024-02-21T10:49:36;0.87;;;0.77;;
17372;SDS011;8803;48.116;11.590;2024-02-21T10:51:45;0.87;;;0.60;;
17372;SDS011;8803;48.116;11.590;2024-02-21T10:54:01;1.53;;;0.93;;
17372;SDS011;8803;48.116;11.590;2024-02-21T10:56:10;1.30;;;1.13;;
17372;SDS011;8803;48.116;11.590;2024-02-21T10:58:23;1.00;;;0.60;;
17372;SDS011;8803;48.116;11.590;2024-02-21T11:02:42;1.10;;;0.97;;
17372;SDS011;8803;48.116;11.590;2024-02-21T11:04:50;1.67;;;0.70;;
17372;SDS011;8803;48.116;11.590;2024-02-21T11:07:04;0.73;;;0.57;;
17372;SDS011;8803;48.116;11.590;2024-02-21T11:09:10;0.80;;;0.53;;
17372;SDS011;8803;48.116;11.590;2024-02-21T11:11:25;1.00;;;0.70;;
17372;SDS011;8803;48.116;11.590;2024-02-21T11:13:31;1.00;;;0.80;;
17372;SDS011;8803;48.116;11.590;2024-02-21T11:15:44;3.53;;;0.90;;
17372;SDS011;8803;48.116;11.590;2024-02-21T11:17:55;1.60;;;0.90;;
17372;SDS011;8803;48.116;11.590;2024-02-21T11:20:12;1.13;;;0.90;;
17372;SDS011;8803;48.116;11.590;2024-02-21T11:22:17;1.93;;;0.90;;
17372;SDS011;8803;48.116;11.590;2024-02-21T11:24:31;0.83;;;0.83;;
17372;SDS011;8803;48.116;11.590;2024-02-21T11:26:44;1.40;;;0.90;;
17372;SDS011;8803;48.116;11.590;2024-02-21T11:28:59;1.27;;;0.70;;
17372;SDS011;8803;48.116;11.590;2024-02-21T11:31:10;0.63;;;0.60;;
17372;SDS011;8803;48.116;11.590;2024-02-21T11:33:24;0.63;;;0.63;;
17372;SDS011;8803;48.116;11.590;2024-02-21T11:35:32;0.60;;;0.50;;
17372;SDS011;8803;48.116;11.590;2024-02-21T11:37:45;0.50;;;0.50;;
17372;SDS011;8803;48.116;11.590;2024-02-21T11:39:51;1.57;;;0.60;;
17372;SDS011;8803;48.116;11.590;2024-02-21T11:42:05;0.70;;;0.47;;
17372;SDS011;8803;48.116;11.590;2024-02-21T11:44:11;0.80;;;0.60;;
17372;SDS011;8803;48.116;11.590;2024-02-21T11:46:24;1.10;;;0.50;;
17372;SDS011;8803;48.116;11.590;2024-02-21T11:48:29;0.40;;;0.40;;
17372;SDS011;8803;48.116;11.590;2024-02-21T11:50:52;0.50;;;0.50;;
17372;SDS011;8803;48.116;11.590;2024-02-21T11:52:57;0.77;;;0.40;;
17372;SDS011;8803;48.116;11.590;2024-02-21T11:55:11;2.17;;;1.30;;
17372;SDS011;8803;48.116;11.590;2024-02-21T11:57:16;2.40;;;0.90;;
17372;SDS011;8803;48.116;11.590;2024-02-21T11:59:30;1.63;;;0.80;;
17372;SDS011;8803;48.116;11.590;2024-02-21T12:01:36;1.77;;;0.77;;
17372;SDS011;8803;48.116;11.590;2024-02-21T12:03:49;0.90;;;0.90;;
17372;SDS011;8803;48.116;11.590;2024-02-21T12:05:54;2.50;;;0.77;;
17372;SDS011;8803;48.116;11.590;2024-02-21T12:08:09;1.80;;;0.63;;
17372;SDS011;8803;48.116;11.590;2024-02-21T12:10:14;0.60;;;0.50;;
17372;SDS011;8803;48.116;11.590;2024-02-21T12:12:27;0.70;;;0.60;;
17372;SDS011;8803;48.116;11.590;2024-02-21T12:14:34;0.60;;;0.50;;
17372;SDS011;8803;48.116;11.590;2024-02-21T12:16:48;0.60;;;0.50;;
17372;SDS011;8803;48.116;11.590;2024-02-21T12:21:06;1.73;;;0.80;;
17372;SDS011;8803;48.116;11.590;2024-02-21T12:23:14;1.00;;;0.60;;
17372;SDS011;8803;48.116;11.590;2024-02-21T12:25:28;0.80;;;0.60;;
17372;SDS011;8803;48.116;11.590;2024-02-21T12:29:47;0.70;;;0.57;;
17372;SDS011;8803;48.116;11.590;2024-02-21T12:31:52;1.03;;;0.93;;
17372;SDS011;8803;48.116;11.590;2024-02-21T12:34:07;0.40;;;0.40;;
17372;SDS011;8803;48.116;11.590;2024-02-21T12:36:12;1.20;;;0.50;;
17372;SDS011;8803;48.116;11.590;2024-02-21T12:38:25;2.83;;;1.30;;
17372;SDS011;8803;48.116;11.590;2024-02-21T12:40:39;1.53;;;0.80;;
17372;SDS011;8803;48.116;11.590;2024-02-21T12:42:45;3.73;;;1.17;;
17372;SDS011;8803;48.116;11.590;2024-02-21T12:44:58;3.93;;;1.47;;
17372;SDS011;8803;48.116;11.590;2024-02-21T12:47:06;3.80;;;1.77;;
17372;SDS011;8803;48.116;11.590;2024-02-21T12:49:19;1.17;;;0.80;;
17372;SDS011;8803;48.116;11.590;2024-02-21T12:51:23;1.00;;;0.80;;
17372;SDS011;8803;48.116;11.590;2024-02-21T12:53:37;0.83;;;0.40;;
17372;SDS011;8803;48.116;11.590;2024-02-21T12:57:53;0.60;;;0.60;;
17372;SDS011;8803;48.116;11.590;2024-02-21T12:59:58;1.00;;;0.80;;
17372;SDS011;8803;48.116;11.590;2024-02-21T13:02:11;0.97;;;0.97;;
17372;SDS011;8803;48.116;11.590;2024-02-21T13:04:16;0.70;;;0.60;;
17372;SDS011;8803;48.116;11.590;2024-02-21T13:06:29;1.40;;;0.90;;
17372;SDS011;8803;48.116;11.590;2024-02-21T13:08:34;0.77;;;0.67;;
17372;SDS011;8803;48.116;11.590;2024-02-21T13:10:48;1.43;;;0.77;;
17372;SDS011;8803;48.116;11.590;2024-02-21T13:12:53;0.67;;;0.60;;
17372;SDS011;8803;48.116;11.590;2024-02-21T13:15:10;2.20;;;0.60;;